Time;durP1;ratioP1;P1;durP2;ratioP2;P2;SDS_P1;SDS_P2;PMS_P1;PMS_P2;Temp;Humidity;BMP_temperature;BMP_pressure;BME280_temperature;BME280_humidity;BME280_pressure;Samples;Min_cycle;Max_cycle;Signal;HPM_P1;HPM_P2
2021/04/23 00:01:22;;;;;;;20.77;5.35;;;4.20;99.90;;;3.47;63.32;98331.34;5032207;28;20120;-68
2021/04/23 00:03:56;;;;;;;21.30;4.88;;;4.10;99.90;;;3.31;63.51;98335.66;5014173;28;20037;-69
2021/04/23 00:06:36;;;;;;;27.75;5.60;;;4.00;99.90;;;3.24;64.29;98331.38;5012535;28;20057;-69
2021/04/23 00:09:32;;;;;;;31.27;5.82;;;3.90;99.90;;;3.32;63.63;98329.66;5026690;28;20041;-68
2021/04/23 00:12:19;;;;;;;15.63;4.43;;;3.90;99.90;;;3.30;63.41;98328.81;5027185;28;20049;-69
2021/04/23 00:15:11;;;;;;;16.77;5.18;;;3.90;99.90;;;3.21;63.94;98329.66;5027598;28;20046;-69
2021/04/23 00:17:45;;;;;;;15.68;4.53;;;3.90;99.90;;;3.07;63.91;98324.56;5024841;28;20129;-69
2021/04/23 00:20:17;;;;;;;14.38;5.13;;;3.90;99.90;;;2.89;64.44;98322.00;5032571;28;20128;-69
2021/04/23 00:22:45;;;;;;;22.70;5.13;;;3.70;99.90;;;2.83;64.12;98324.56;5027440;28;20049;-69
2021/04/23 00:25:12;;;;;;;14.70;4.55;;;3.60;99.90;;;2.60;64.64;98321.97;5025790;28;20044;-69
2021/04/23 00:27:42;;;;;;;12.27;3.97;;;3.60;99.90;;;2.56;64.81;98327.97;5024466;28;20099;-69
2021/04/23 00:30:10;;;;;;;15.77;4.78;;;3.40;99.90;;;2.54;64.63;98330.53;5010042;28;20040;-69
2021/04/23 00:32:53;;;;;;;15.35;5.13;;;3.40;99.90;;;2.54;65.06;98327.97;5024423;28;20064;-69
2021/04/23 00:35:22;;;;;;;21.25;5.53;;;3.30;99.90;;;2.58;65.62;98326.25;5007339;28;20461;-69
2021/04/23 00:37:52;;;;;;;19.60;5.65;;;3.20;99.90;;;2.58;66.45;98323.69;5022684;28;20049;-69
2021/04/23 00:40:28;;;;;;;17.55;6.05;;;3.20;99.90;;;2.58;66.34;98327.13;5008598;28;20086;-69
2021/04/23 00:43:27;;;;;;;23.15;4.88;;;3.20;99.90;;;2.25;65.98;98326.19;5022648;28;20069;-68
2021/04/23 00:46:14;;;;;;;15.30;5.15;;;3.20;99.90;;;2.20;65.86;98322.75;5024563;28;20119;-69
2021/04/23 00:48:48;;;;;;;14.43;5.20;;;3.10;99.90;;;2.08;67.04;98326.16;5026186;28;20046;-69
2021/04/23 00:51:29;;;;;;;16.42;4.53;;;3.00;99.90;;;2.03;66.80;98326.97;5005952;28;20065;-69
2021/04/23 00:54:16;;;;;;;17.02;5.50;;;2.90;99.90;;;2.01;67.63;98324.41;5018709;28;20052;-69
2021/04/23 00:57:03;;;;;;;23.13;5.47;;;2.80;99.90;;;2.02;67.56;98330.38;5022859;28;20045;-69
2021/04/23 00:59:33;;;;;;;18.77;5.03;;;2.80;99.90;;;2.00;67.46;98324.41;5013794;28;20239;-69
2021/04/23 01:02:09;;;;;;;16.88;4.50;;;2.70;99.90;;;1.92;67.89;98329.50;5024327;28;20485;-69
2021/04/23 01:04:37;;;;;;;16.13;4.45;;;2.70;99.90;;;1.86;68.58;98335.44;5009302;28;20065;-69
2021/04/23 01:07:05;;;;;;;20.85;5.93;;;2.60;99.90;;;1.87;67.40;98333.72;5026936;28;20045;-69
2021/04/23 01:09:32;;;;;;;13.68;5.85;;;2.60;99.90;;;2.03;67.87;98339.75;5025086;28;20502;-69
2021/04/23 01:12:04;;;;;;;14.68;4.32;;;2.70;99.90;;;1.96;67.56;98325.25;5022967;28;20080;-69
2021/04/23 01:14:31;;;;;;;18.80;5.50;;;2.70;99.90;;;1.93;67.83;98327.78;5009898;28;20095;-69
2021/04/23 01:16:58;;;;;;;13.63;4.63;;;2.70;99.90;;;1.77;67.71;98337.13;4993193;28;20376;-69
2021/04/23 01:19:27;;;;;;;16.83;5.00;;;2.70;99.90;;;1.64;67.82;98337.06;5009192;28;20045;-68
2021/04/23 01:21:55;;;;;;;12.93;4.22;;;2.60;99.90;;;1.56;67.94;98333.59;5021809;28;20046;-69
2021/04/23 01:24:22;;;;;;;19.42;5.80;;;2.50;99.90;;;1.64;68.80;98333.63;5018811;28;20042;-68
2021/04/23 01:26:53;;;;;;;20.17;5.78;;;2.40;99.90;;;1.58;68.87;98326.78;5026780;28;20037;-69
2021/04/23 01:29:22;;;;;;;15.98;5.38;;;2.30;99.90;;;1.40;70.06;98331.81;5031409;28;20072;-68
2021/04/23 01:31:55;;;;;;;24.58;6.07;;;2.20;99.90;;;1.24;71.35;98336.81;5036888;28;20068;-69
2021/04/23 01:34:30;;;;;;;23.95;6.32;;;2.10;99.90;;;1.35;72.17;98339.44;5023736;28;20050;-69
2021/04/23 01:37:17;;;;;;;24.65;5.60;;;2.20;99.90;;;1.37;71.88;98337.75;5030457;28;20048;-69
2021/04/23 01:40:08;;;;;;;21.55;6.78;;;2.20;99.90;;;1.58;71.82;98334.47;5030782;28;20046;-69
2021/04/23 01:42:55;;;;;;;20.77;5.53;;;2.30;99.90;;;1.73;71.23;98340.50;5029697;28;20030;-69
2021/04/23 01:45:42;;;;;;;25.60;6.78;;;2.40;99.90;;;1.63;70.69;98342.16;5029926;28;20502;-68
2021/04/23 01:48:29;;;;;;;21.52;5.78;;;2.40;99.90;;;1.48;71.03;98347.19;5021817;28;20496;-69
2021/04/23 01:51:16;;;;;;;18.23;6.13;;;2.40;99.90;;;1.42;71.13;98354.00;5013895;28;20061;-68
2021/04/23 01:54:06;;;;;;;15.63;5.45;;;2.30;99.90;;;1.43;71.27;98350.56;5025350;28;20119;-68
2021/04/23 01:56:33;;;;;;;21.48;6.68;;;2.20;99.90;;;1.36;71.41;98353.09;5012583;28;20061;-69
2021/04/23 01:59:00;;;;;;;29.88;6.78;;;2.20;99.90;;;1.12;72.27;98361.44;5022848;28;20057;-69
2021/04/23 02:01:27;;;;;;;25.40;6.18;;;2.10;99.90;;;1.12;72.57;98357.19;5005335;28;20056;-69
2021/04/23 02:04:19;;;;;;;23.55;6.15;;;2.00;99.90;;;1.40;72.32;98357.38;5020759;28;20549;-69
2021/04/23 02:06:48;;;;;;;18.70;6.50;;;2.10;99.90;;;1.56;71.74;98354.06;5012325;28;20041;-69
2021/04/23 02:09:15;;;;;;;24.30;6.22;;;2.20;99.90;;;1.54;71.67;98348.09;5010483;28;20041;-69
2021/04/23 02:11:45;;;;;;;26.15;6.55;;;2.30;99.90;;;1.41;71.29;98348.84;5030454;28;20450;-69
2021/04/23 02:14:12;;;;;;;18.42;6.20;;;2.30;99.90;;;1.29;71.59;98351.34;5026599;28;20049;-69
2021/04/23 02:16:39;;;;;;;16.58;6.10;;;2.20;99.90;;;0.97;72.10;98351.97;5005325;28;20053;-69
2021/04/23 02:19:09;;;;;;;18.33;6.78;;;2.00;99.90;;;0.96;72.13;98353.66;5022564;28;20396;-69
2021/04/23 02:21:36;;;;;;;24.48;5.97;;;1.90;99.90;;;0.97;72.59;98357.06;5018380;28;20045;-70
2021/04/23 02:24:05;;;;;;;26.92;6.43;;;1.80;99.90;;;0.87;72.96;98358.69;5012197;28;20041;-70
2021/04/23 02:26:34;;;;;;;20.17;7.10;;;1.70;99.90;;;0.87;73.61;98355.25;5013266;28;20052;-70
2021/04/23 02:29:21;;;;;;;21.20;6.43;;;1.70;99.90;;;0.99;73.54;98356.22;5014427;28;20048;-69
2021/04/23 02:32:08;;;;;;;20.85;6.05;;;1.80;99.90;;;1.08;73.38;98352.91;5026522;28;20110;-70
2021/04/23 02:34:55;;;;;;;24.98;7.18;;;1.90;99.90;;;0.98;73.33;98359.66;5029314;28;20673;-70
2021/04/23 02:37:42;;;;;;;18.85;6.22;;;1.80;99.90;;;0.96;73.37;98361.34;5028945;28;20100;-70
2021/04/23 02:40:31;;;;;;;19.80;6.53;;;1.80;99.90;;;1.07;73.02;98355.44;5016623;28;20386;-70
2021/04/23 02:43:28;;;;;;;27.00;7.10;;;1.80;99.90;;;1.21;72.52;98356.41;5027746;28;20049;-70
2021/04/23 02:46:13;;;;;;;18.02;5.65;;;1.90;99.90;;;1.21;72.17;98353.84;5007313;28;20038;-70
2021/04/23 02:48:44;;;;;;;20.35;5.55;;;2.00;99.90;;;1.11;71.76;98362.28;5014142;28;20038;-70
2021/04/23 02:51:22;;;;;;;17.23;4.85;;;2.00;99.90;;;1.07;70.98;98358.84;5018702;28;20092;-70
2021/04/23 02:53:50;;;;;;;13.57;3.72;;;2.00;99.90;;;1.08;70.07;98368.25;5023534;28;20058;-70
2021/04/23 02:56:18;;;;;;;12.85;4.78;;;1.90;99.90;;;1.09;69.59;98369.94;5028592;28;20147;-70
2021/04/23 02:58:47;;;;;;;15.20;4.70;;;1.80;99.90;;;0.88;70.27;98369.78;5029970;28;20053;-70
2021/04/23 03:01:41;;;;;;;12.18;4.25;;;1.70;99.90;;;0.79;70.54;98378.22;5024627;28;20525;-70
2021/04/23 03:04:27;;;;;;;16.17;5.55;;;1.70;99.90;;;0.74;71.26;98384.97;5010906;28;20088;-70
2021/04/23 03:06:55;;;;;;;25.85;6.25;;;1.60;99.90;;;0.65;72.58;98387.44;5024842;28;20050;-70
2021/04/23 03:09:40;;;;;;;21.02;6.85;;;1.50;99.90;;;0.61;74.24;98389.97;5005271;28;20120;-70
2021/04/23 03:12:27;;;;;;;21.70;7.40;;;1.40;99.90;;;0.52;73.98;98397.53;5023656;28;20485;-70
2021/04/23 03:15:15;;;;;;;17.85;6.65;;;1.40;99.90;;;0.38;73.96;98387.16;5024173;28;20453;-70
2021/04/23 03:18:03;;;;;;;19.88;6.75;;;1.30;99.90;;;0.40;74.56;98395.72;5015339;28;20041;-70
2021/04/23 03:20:53;;;;;;;20.02;6.50;;;1.30;99.90;;;0.30;74.46;98387.94;5029077;28;20045;-70
2021/04/23 03:23:42;;;;;;;19.63;6.65;;;1.20;99.90;;;0.35;74.47;98388.84;5025885;28;20119;-70
2021/04/23 03:26:17;;;;;;;19.00;6.88;;;1.20;99.90;;;0.41;74.69;98384.66;5003070;28;20532;-70
2021/04/23 03:28:44;;;;;;;28.38;7.43;;;1.20;99.90;;;0.53;74.64;98383.94;5026910;28;20046;-70
2021/04/23 03:31:13;;;;;;;20.40;7.45;;;1.30;99.90;;;0.37;74.65;98390.56;5003698;28;20379;-70
2021/04/23 03:34:00;;;;;;;20.85;6.68;;;1.30;99.90;;;0.38;74.27;98384.59;5024631;28;20151;-69
2021/04/23 03:36:47;;;;;;;25.95;6.82;;;1.30;99.90;;;0.58;74.59;98387.38;5017610;28;20048;-70
2021/04/23 03:39:34;;;;;;;15.40;5.22;;;1.30;99.90;;;0.63;73.20;98387.44;5024431;28;20053;-70
2021/04/23 03:42:21;;;;;;;11.90;4.68;;;1.40;99.90;;;0.56;72.07;98395.88;5019310;28;20533;-69
2021/04/23 03:44:48;;;;;;;13.07;5.03;;;1.40;99.90;;;0.37;72.48;98394.84;5028869;28;20045;-70
2021/04/23 03:47:15;;;;;;;11.85;4.57;;;1.40;99.90;;;0.38;72.07;98393.97;5026207;28;20493;-70
2021/04/23 03:49:43;;;;;;;13.48;4.57;;;1.30;99.90;;;0.36;72.17;98396.50;5022396;28;20146;-70
2021/04/23 03:52:09;;;;;;;16.50;5.90;;;1.20;99.90;;;0.32;72.68;98393.91;5009209;28;20041;-70
2021/04/23 03:54:37;;;;;;;25.42;7.30;;;1.20;99.90;;;0.20;74.11;98398.03;5017354;28;20042;-70
2021/04/23 03:57:05;;;;;;;18.02;6.88;;;1.00;99.90;;;0.18;74.44;98396.28;5020182;28;20038;-70
2021/04/23 03:59:32;;;;;;;19.08;7.13;;;1.00;99.90;;;-0.01;75.52;98396.06;5011434;28;20045;-69
2021/04/23 04:01:59;;;;;;;17.35;6.38;;;0.90;99.90;;;0.03;75.63;98398.69;5003315;28;20057;-69
2021/04/23 04:04:26;;;;;;;18.23;6.72;;;0.90;99.90;;;0.05;75.22;98400.41;5001323;28;20081;-70
2021/04/23 04:06:54;;;;;;;18.92;7.63;;;0.90;99.90;;;0.02;75.92;98395.25;5021534;28;20060;-70
2021/04/23 04:09:20;;;;;;;21.38;7.45;;;0.90;99.90;;;0.02;75.96;98395.25;5022665;28;20443;-70
2021/04/23 04:11:47;;;;;;;20.08;7.95;;;0.90;99.90;;;-0.08;76.17;98393.44;5026120;28;20089;-71
2021/04/23 04:14:14;;;;;;;23.42;8.38;;;0.90;99.90;;;-0.11;76.18;98393.41;5013298;28;20132;-70
2021/04/23 04:16:40;;;;;;;22.17;7.95;;;0.80;99.90;;;-0.12;76.46;98399.34;5023208;28;20095;-70
2021/04/23 04:19:27;;;;;;;22.33;6.85;;;0.80;99.90;;;-0.15;75.98;98396.75;5027477;28;20135;-70
2021/04/23 04:22:14;;;;;;;22.55;7.43;;;0.80;99.90;;;0.03;75.94;98407.19;5025451;28;20506;-70
2021/04/23 04:25:03;;;;;;;22.55;6.97;;;0.80;99.90;;;0.07;75.75;98403.84;5028765;28;20057;-70
2021/04/23 04:27:50;;;;;;;14.23;6.50;;;0.90;99.90;;;0.15;75.12;98409.03;5022064;28;20034;-70
2021/04/23 04:30:39;;;;;;;17.90;7.05;;;1.00;99.90;;;0.13;75.32;98408.16;5008547;28;20056;-70
2021/04/23 04:33:26;;;;;;;22.33;6.97;;;0.90;99.90;;;0.15;75.39;98415.00;5011911;28;20065;-70
2021/04/23 04:36:14;;;;;;;18.55;6.57;;;1.00;99.90;;;0.11;75.78;98415.78;5026168;28;20062;-70
2021/04/23 04:39:00;;;;;;;21.88;8.32;;;1.00;99.90;;;0.09;76.00;98412.38;5009938;28;20510;-70
2021/04/23 04:41:47;;;;;;;27.00;7.07;;;1.00;99.90;;;-0.11;75.88;98416.38;5019118;28;20056;-69
2021/04/23 04:44:35;;;;;;;25.70;7.78;;;0.90;99.90;;;-0.02;75.90;98412.25;5023968;28;20092;-69
2021/04/23 04:47:22;;;;;;;22.38;6.88;;;0.90;99.90;;;-0.06;76.05;98424.94;5025321;28;20482;-70
2021/04/23 04:50:26;;;;;;;21.95;8.00;;;0.90;99.90;;;-0.11;76.26;98419.78;5022132;28;20042;-70
2021/04/23 04:53:13;;;;;;;16.77;7.43;;;0.90;99.90;;;-0.01;76.34;98419.03;5023655;28;20045;-71
2021/04/23 04:55:45;;;;;;;18.75;6.97;;;0.90;99.90;;;0.11;75.47;98431.09;4993508;28;20454;-70
2021/04/23 04:58:15;;;;;;;21.95;6.72;;;1.00;99.90;;;0.14;74.92;98417.53;5017041;28;20092;-70
2021/04/23 05:00:44;;;;;;;15.45;5.93;;;1.10;99.90;;;0.10;74.90;98424.28;5018136;28;20129;-70
2021/04/23 05:03:11;;;;;;;18.52;6.32;;;1.20;99.90;;;0.16;74.55;98428.59;5028407;28;20204;-70
2021/04/23 05:05:39;;;;;;;16.38;5.97;;;1.20;99.90;;;0.31;74.20;98428.81;5013470;28;20399;-70
2021/04/23 05:08:26;;;;;;;14.55;6.38;;;1.30;99.90;;;0.39;74.97;98434.03;5010080;28;20076;-70
2021/04/23 05:10:54;;;;;;;25.00;7.53;;;1.30;99.90;;;0.30;75.66;98432.22;5014755;28;20041;-70
2021/04/23 05:13:21;;;;;;;23.35;7.72;;;1.30;99.90;;;0.48;76.60;98438.34;5031037;28;20053;-70
2021/04/23 05:15:48;;;;;;;21.20;7.05;;;1.40;99.90;;;0.68;75.66;98434.31;5029225;28;20049;-70
2021/04/23 05:18:15;;;;;;;25.15;7.60;;;1.50;99.90;;;0.53;75.37;98439.28;5013275;28;20095;-70
2021/04/23 05:20:42;;;;;;;19.73;7.50;;;1.50;99.90;;;0.51;75.63;98433.28;5012084;28;20473;-70
2021/04/23 05:23:09;;;;;;;16.95;6.65;;;1.50;99.90;;;0.61;75.57;98443.59;5004326;28;20084;-70
2021/04/23 05:25:36;;;;;;;17.58;6.55;;;1.60;99.90;;;0.80;76.19;98446.38;5001841;28;20046;-70
2021/04/23 05:28:04;;;;;;;21.05;7.40;;;1.70;99.90;;;1.12;75.10;98445.81;5020279;28;20034;-70
2021/04/23 05:30:35;;;;;;;16.23;6.97;;;1.90;99.90;;;1.07;74.93;98452.59;4993301;28;20045;-70
2021/04/23 05:33:04;;;;;;;21.65;7.03;;;2.00;99.90;;;0.98;75.61;98451.69;5005701;28;20065;-70
2021/04/23 05:35:51;;;;;;;23.90;7.18;;;2.00;99.90;;;1.03;75.25;98455.13;5030362;28;20164;-71
2021/04/23 05:38:38;;;;;;;21.25;6.22;;;2.10;99.90;;;1.29;74.95;98461.31;5023858;28;20402;-71
2021/04/23 05:41:25;;;;;;;16.73;5.93;;;2.30;99.90;;;1.58;74.34;98452.16;5021902;28;20045;-69
2021/04/23 05:44:10;;;;;;;19.55;7.18;;;2.60;99.90;;;1.98;72.74;98454.97;5028944;28;20033;-69
2021/04/23 05:46:37;;;;;;;17.83;6.32;;;2.90;99.90;;;2.32;72.46;98459.44;5026303;28;20092;-69
2021/04/23 05:49:06;;;;;;;21.08;5.22;;;3.20;99.90;;;2.52;70.56;98455.22;5029591;28;20041;-69
2021/04/23 05:51:33;;;;;;;19.05;6.75;;;3.40;99.90;;;2.77;69.81;98453.59;5012177;28;20073;-69
2021/04/23 05:54:00;;;;;;;24.27;6.07;;;3.70;99.90;;;2.96;69.58;98456.22;5024823;28;20045;-69
2021/04/23 05:56:26;;;;;;;18.77;5.68;;;4.00;99.90;;;3.05;69.34;98463.91;5011843;28;20738;-69
2021/04/23 05:58:54;;;;;;;15.90;5.20;;;4.10;99.90;;;3.25;68.75;98457.09;5010793;28;20049;-69
2021/04/23 06:01:24;;;;;;;20.98;6.10;;;4.20;99.90;;;3.42;68.01;98451.13;5014361;28;20125;-69
2021/04/23 06:03:51;;;;;;;15.57;5.45;;;4.40;99.90;;;3.66;67.46;98457.97;5018719;28;20052;-69
2021/04/23 06:06:17;;;;;;;21.10;6.88;;;4.60;99.90;;;3.80;66.97;98465.66;5013591;28;20042;-69
2021/04/23 06:08:44;;;;;;;21.45;5.47;;;4.90;99.90;;;4.09;66.73;98465.59;5028265;28;20052;-69
2021/04/23 06:11:16;;;;;;;16.88;5.07;;;5.10;99.90;;;4.30;66.09;98457.81;5029396;28;20049;-69
2021/04/23 06:13:44;;;;;;;18.05;5.13;;;5.30;99.90;;;4.55;64.85;98462.88;5024640;28;20187;-69
2021/04/23 06:16:11;;;;;;;23.73;5.80;;;5.50;99.90;;;4.70;63.94;98461.94;4993460;28;20050;-68
2021/04/23 06:18:39;;;;;;;17.60;6.00;;;5.60;99.90;;;4.92;62.66;98466.09;5010232;28;20042;-68
2021/04/23 06:21:06;;;;;;;15.60;4.75;;;5.90;99.90;;;5.13;62.24;98461.69;5029841;28;20109;-69
2021/04/23 06:23:33;;;;;;;21.60;5.65;;;6.00;99.90;;;5.36;61.25;98449.53;5021213;28;20581;-69
2021/04/23 06:26:00;;;;;;;17.10;5.35;;;6.20;99.90;;;5.48;60.70;98461.44;4997046;28;20052;-69
2021/04/23 06:28:27;;;;;;;15.40;5.40;;;6.40;99.90;;;5.56;61.08;98462.22;5011418;28;20049;-69
2021/04/23 06:30:57;;;;;;;21.33;5.32;;;6.60;99.90;;;5.80;60.33;98462.88;5021458;28;20093;-69
2021/04/23 06:33:28;;;;;;;19.48;5.05;;;6.70;99.90;;;5.95;59.85;98456.75;5029752;28;20049;-69
2021/04/23 06:35:55;;;;;;;20.05;4.97;;;6.90;99.90;;;6.12;58.32;98469.50;5010354;28;20088;-69
2021/04/23 06:38:24;;;;;;;23.20;5.35;;;7.00;99.90;;;6.25;57.08;98460.75;5023071;28;20064;-69
2021/04/23 06:40:51;;;;;;;17.83;5.72;;;7.10;99.90;;;6.35;58.23;98458.91;5029665;28;20053;-68
2021/04/23 06:43:18;;;;;;;17.52;5.00;;;7.30;99.90;;;6.44;58.00;98467.41;5017939;28;20065;-69
2021/04/23 06:45:45;;;;;;;16.60;6.00;;;7.40;99.90;;;6.59;57.59;98470.66;5030205;28;20042;-68
2021/04/23 06:48:14;;;;;;;17.10;5.13;;;7.50;99.90;;;6.75;57.14;98471.31;5030307;28;20049;-68
2021/04/23 06:50:42;;;;;;;19.05;5.40;;;7.70;99.90;;;6.75;55.35;98473.91;5027768;28;20068;-68
2021/04/23 06:53:08;;;;;;;15.68;5.10;;;7.70;99.90;;;6.80;55.17;98472.13;5038447;28;20046;-69
2021/04/23 06:55:35;;;;;;;13.52;5.07;;;7.80;99.90;;;6.79;55.48;98478.16;5027764;28;20206;-69
2021/04/23 06:58:03;;;;;;;15.00;5.20;;;7.70;99.90;;;6.75;55.26;98477.34;5014265;28;20099;-68
2021/04/23 07:00:33;;;;;;;16.45;6.05;;;7.70;99.90;;;6.64;54.60;98477.47;5028161;28;20050;-69
2021/04/23 07:03:01;;;;;;;17.95;5.90;;;7.60;99.90;;;6.62;54.19;98478.38;5030149;28;20053;-69
2021/04/23 07:05:29;;;;;;;15.60;5.88;;;7.50;99.90;;;6.64;54.92;98482.63;5017608;28;20529;-69
2021/04/23 07:07:56;;;;;;;18.60;5.55;;;7.60;99.90;;;6.75;54.05;98482.50;5023275;28;20092;-69
2021/04/23 07:10:26;;;;;;;19.30;5.93;;;7.70;99.90;;;6.87;53.73;98484.91;5023867;28;20059;-69
2021/04/23 07:12:56;;;;;;;24.05;6.22;;;7.70;99.90;;;6.90;54.04;98487.44;5012607;28;20041;-69
2021/04/23 07:15:25;;;;;;;15.70;4.85;;;7.80;99.90;;;7.04;53.93;98483.84;5016846;28;20502;-69
2021/04/23 07:17:53;;;;;;;13.55;5.72;;;7.80;99.90;;;7.13;52.78;98489.72;5013108;28;20116;-68
2021/04/23 07:20:40;;;;;;;19.38;6.07;;;7.90;99.90;;;7.43;52.17;98491.88;5014997;28;20120;-69
2021/04/23 07:23:08;;;;;;;16.45;6.22;;;8.20;99.90;;;7.65;52.20;98500.16;5024001;28;20025;-69
2021/04/23 07:25:35;;;;;;;15.70;5.43;;;8.40;99.90;;;7.81;52.98;98487.84;5022516;28;20053;-68
2021/04/23 07:28:03;;;;;;;16.52;5.97;;;8.60;99.90;;;8.11;52.56;98492.47;5009431;28;20049;-69
2021/04/23 07:30:35;;;;;;;22.90;5.38;;;8.90;99.90;;;8.25;50.79;98494.78;5026644;28;20073;-68
2021/04/23 07:33:04;;;;;;;24.75;6.32;;;9.00;99.90;;;7.96;50.51;98490.16;5027036;28;20056;-69
2021/04/23 07:35:32;;;;;;;16.38;6.05;;;8.90;99.90;;;8.07;50.44;98495.97;5002314;28;20045;-69
2021/04/23 07:38:00;;;;;;;15.90;5.40;;;8.90;99.90;;;8.27;50.96;98493.03;5008853;28;20112;-69
2021/04/23 07:40:28;;;;;;;20.17;5.45;;;9.10;99.90;;;8.16;50.86;98489.78;5008505;28;20793;-69
2021/04/23 07:43:00;;;;;;;17.77;5.07;;;9.00;99.90;;;8.34;51.35;98486.84;5023118;28;20155;-69
2021/04/23 07:45:33;;;;;;;15.48;5.88;;;9.20;99.90;;;8.23;51.02;98493.13;5015711;28;20175;-69
2021/04/23 07:48:00;;;;;;;13.45;5.32;;;9.20;99.90;;;8.22;50.47;98496.59;5014807;28;20108;-69
2021/04/23 07:50:27;;;;;;;17.38;6.45;;;9.30;99.90;;;8.41;50.36;98490.22;5020613;28;20192;-69
2021/04/23 07:52:58;;;;;;;20.27;5.90;;;9.40;99.90;;;8.62;49.08;98491.53;5021085;28;20072;-69
2021/04/23 07:55:25;;;;;;;15.43;6.18;;;9.60;99.90;;;8.57;50.35;98488.19;5019538;28;20100;-68
2021/04/23 07:57:55;;;;;;;15.88;6.53;;;9.70;99.90;;;8.63;49.47;98492.41;5031529;28;20048;-69
2021/04/23 08:00:23;;;;;;;22.33;6.63;;;9.80;99.90;;;8.79;48.87;98488.59;5026266;28;20041;-68
2021/04/23 08:02:53;;;;;;;15.35;5.22;;;10.10;99.90;;;9.23;48.09;98488.53;5001610;28;20042;-69
2021/04/23 08:05:25;;;;;;;17.42;6.30;;;10.60;99.90;;;9.69;47.17;98490.03;5019360;28;20054;-69
2021/04/23 08:08:02;;;;;;;15.82;5.95;;;11.10;99.90;;;10.10;46.17;98477.75;5017243;28;20064;-69
2021/04/23 08:10:36;;;;;;;18.42;6.97;;;11.50;99.90;;;10.49;45.49;98473.28;4996353;28;20048;-69
2021/04/23 08:13:04;;;;;;;17.30;6.20;;;12.10;99.90;;;10.48;44.31;98474.16;5026394;28;20096;-69
2021/04/23 08:15:32;;;;;;;13.35;6.40;;;11.90;99.90;;;10.38;44.65;98470.13;5028480;28;20087;-69
2021/04/23 08:17:59;;;;;;;18.95;6.25;;;11.80;99.90;;;11.23;42.75;98466.75;5024890;28;20386;-69
2021/04/23 08:20:27;;;;;;;17.45;6.85;;;12.20;99.90;;;11.27;42.02;98457.13;5028541;28;20042;-69
2021/04/23 08:22:54;;;;;;;18.10;6.32;;;12.00;99.90;;;11.07;42.12;98462.94;5010508;28;20049;-69
2021/04/23 08:25:22;;;;;;;13.85;6.20;;;12.00;99.90;;;11.40;41.34;98465.38;5026300;28;20034;-69
2021/04/23 08:27:50;;;;;;;18.75;6.40;;;12.20;99.40;;;11.50;40.89;98465.03;5024514;28;20138;-69
2021/04/23 08:30:23;;;;;;;16.55;5.97;;;12.40;99.10;;;12.09;40.04;98470.97;5009711;28;20041;-69
2021/04/23 08:32:50;;;;;;;;;;;12.90;97.90;;;11.86;40.33;98462.13;5019528;28;20042;-69
2021/04/23 08:35:17;;;;;;;13.20;5.90;;;13.10;97.30;;;12.19;38.76;98467.13;4990744;28;20558;-69
2021/04/23 08:37:44;;;;;;;13.90;6.43;;;13.10;95.80;;;11.98;39.60;98467.88;5010552;28;20123;-69
2021/04/23 08:40:13;;;;;;;11.48;5.45;;;12.90;96.30;;;11.90;39.52;98463.75;5019935;28;20406;-69
2021/04/23 08:42:40;;;;;;;12.52;6.32;;;12.90;95.70;;;11.52;39.83;98467.59;5011085;28;20071;-69
2021/04/23 08:45:15;;;;;;;13.70;6.43;;;12.70;95.40;;;11.95;39.96;98467.94;5026674;28;20459;-69
2021/04/23 08:47:43;;;;;;;11.35;5.97;;;12.90;96.20;;;12.17;38.21;98466.31;5019983;28;20641;-69
2021/04/23 08:50:16;;;;;;;10.05;4.43;;;13.50;93.20;;;12.61;37.12;98476.03;5002734;28;20052;-69
2021/04/23 08:52:45;;;;;;;13.18;6.05;;;13.90;92.00;;;12.18;36.89;98472.38;5025279;28;20121;-69
2021/04/23 08:55:15;;;;;;;11.55;5.38;;;13.40;90.50;;;12.34;36.12;98469.19;5026460;28;20111;-69
2021/04/23 08:57:42;;;;;;;11.13;5.57;;;13.60;90.30;;;12.81;36.72;98454.47;5028615;28;20525;-69
2021/04/23 09:00:11;;;;;;;12.82;5.65;;;13.80;90.40;;;13.16;35.54;98468.78;5012212;28;20049;-69
2021/04/23 09:02:38;;;;;;;15.25;5.80;;;14.10;88.50;;;13.54;35.64;98456.84;5025575;28;20041;-69
2021/04/23 09:05:06;;;;;;;14.15;6.22;;;14.40;88.70;;;12.71;37.04;98467.84;5010696;28;20045;-70
2021/04/23 09:07:33;;;;;;;15.25;5.47;;;14.00;89.00;;;13.14;36.52;98462.78;5026668;28;20090;-69
2021/04/23 09:10:20;;;;;;;14.55;5.25;;;14.20;88.40;;;13.97;35.81;98456.84;5033151;28;20041;-69
2021/04/23 09:13:16;;;;;;;11.63;5.60;;;14.60;88.10;;;13.36;34.65;98453.25;5027003;28;20061;-69
2021/04/23 09:15:46;;;;;;;13.27;5.05;;;14.90;80.30;;;13.08;35.06;98466.47;5027484;28;20046;-70
2021/04/23 09:18:18;;;;;;;13.07;5.25;;;14.40;81.40;;;13.36;36.28;98461.06;5027895;28;20045;-70
2021/04/23 09:20:49;;;;;;;9.07;4.75;;;14.80;83.30;;;14.16;33.36;98456.88;5005449;28;20137;-70
2021/04/23 09:23:21;;;;;;;12.03;5.40;;;15.40;78.40;;;13.79;34.26;98469.72;5009996;28;20234;-69
2021/04/23 09:25:50;;;;;;;16.83;8.95;;;15.40;76.80;;;13.76;33.43;98469.03;5023681;28;20042;-70
2021/04/23 09:28:42;;;;;;;12.07;5.00;;;15.70;72.90;;;13.89;32.81;98458.91;5027497;28;20048;-71
2021/04/23 09:31:38;;;;;;;10.38;4.65;;;15.30;71.40;;;13.72;34.45;98457.00;5020835;28;20396;-69
2021/04/23 09:34:07;;;;;;;11.15;5.65;;;15.10;74.00;;;13.40;34.81;98459.16;4988281;28;20065;-69
2021/04/23 09:36:46;;;;;;;12.68;4.90;;;14.80;74.80;;;13.84;34.39;98471.31;5016103;28;20042;-69
2021/04/23 09:39:21;;;;;;;11.20;4.28;;;15.20;74.50;;;14.46;31.63;98472.13;5028772;28;20117;-69
2021/04/23 09:42:04;;;;;;;9.20;4.00;;;15.70;70.00;;;14.38;31.51;98472.50;5033639;28;20048;-69
2021/04/23 09:44:47;;;;;;;10.27;4.50;;;16.10;66.90;;;14.68;31.36;98462.47;5010524;28;20094;-69
2021/04/23 09:47:36;;;;;;;11.10;4.32;;;16.20;66.10;;;14.39;31.59;98469.81;5028340;28;20037;-69
2021/04/23 09:50:34;;;;;;;10.45;3.88;;;16.00;65.50;;;14.27;29.74;98467.72;5040022;28;20076;-69
2021/04/23 09:53:32;;;;;;;10.50;4.75;;;15.60;60.90;;;14.35;32.66;98465.63;5030175;28;20068;-70
2021/04/23 09:56:34;;;;;;;9.98;4.07;;;15.70;66.80;;;15.06;30.91;98459.88;5030390;28;20037;-69
2021/04/23 09:59:26;;;;;;;11.52;4.95;;;16.30;64.40;;;15.24;30.85;98451.16;5034008;28;20534;-69
2021/04/23 10:02:15;;;;;;;15.02;4.72;;;16.60;64.30;;;15.58;30.34;98453.94;5038633;28;20040;-69
2021/04/23 10:04:41;;;;;;;12.55;5.03;;;17.20;62.50;;;15.03;30.94;98454.78;5030768;28;20132;-69
2021/04/23 10:07:23;;;;;;;8.73;3.55;;;16.80;61.80;;;15.76;29.43;98449.56;5011978;28;20080;-69
2021/04/23 10:10:09;;;;;;;11.60;4.38;;;17.20;59.80;;;15.55;29.28;98441.81;5012068;28;20046;-69
2021/04/23 10:12:54;;;;;;;8.65;3.33;;;17.10;58.60;;;16.42;28.60;98443.56;5012995;28;20046;-70
2021/04/23 10:15:28;;;;;;;8.15;2.60;;;18.20;58.40;;;17.13;26.99;98443.28;5028664;28;20057;-69
2021/04/23 10:18:00;;;;;;;9.55;3.70;;;18.90;55.40;;;17.19;26.47;98437.69;5029579;28;20116;-69
2021/04/23 10:20:56;;;;;;;10.70;4.18;;;19.10;52.60;;;15.81;28.62;98439.72;5030614;28;20046;-70
2021/04/23 10:23:24;;;;;;;9.20;3.10;;;18.20;53.10;;;16.57;29.10;98447.19;5003761;28;20072;-70
2021/04/23 10:25:54;;;;;;;10.15;3.80;;;18.80;54.60;;;17.15;28.06;98430.91;5025442;28;20144;-69
2021/04/23 10:28:25;;;;;;;10.02;4.18;;;19.00;53.90;;;15.42;30.47;98438.97;5012876;28;20413;-70
2021/04/23 10:30:55;;;;;;;12.55;4.72;;;17.70;54.80;;;15.71;29.48;98447.16;5028369;28;20478;-69
2021/04/23 10:33:25;;;;;;;7.45;3.40;;;17.80;54.30;;;15.33;27.33;98442.03;5026797;28;20044;-70
2021/04/23 10:36:12;;;;;;;7.45;3.10;;;17.20;51.10;;;16.02;26.79;98443.03;5022588;28;20034;-69
2021/04/23 10:39:00;;;;;;;9.15;3.35;;;18.10;50.20;;;16.95;27.26;98441.69;5029362;28;20140;-69
2021/04/23 10:41:47;;;;;;;8.13;4.10;;;19.00;50.70;;;16.48;27.16;98444.09;5019955;28;20045;-69
2021/04/23 10:45:01;;;;;;;7.57;3.67;;;18.60;50.30;;;16.08;28.02;98442.72;5021279;28;20107;-70
2021/04/23 10:47:45;;;;;;;9.40;4.03;;;18.40;50.60;;;16.33;27.69;98441.44;5017310;28;20041;-70
2021/04/23 10:50:20;;;;;;;11.15;3.67;;;18.70;50.40;;;15.79;26.62;98437.19;5029179;28;20078;-70
2021/04/23 10:53:09;;;;;;;12.85;3.35;;;18.20;48.10;;;15.18;27.65;98434.91;5011625;28;20498;-70
2021/04/23 10:55:51;;;;;;;5.97;2.90;;;17.50;48.80;;;15.83;25.87;98436.09;5013489;28;20122;-69